sensor_id;sensor_type;location;lat;lon;timestamp;P1;durP1;ratioP1;P2;durP2;ratioP2
12459;SDS011;6295;49.452;8.466;2022-10-16T05:12:57;3.40;;;2.70;;
12459;SDS011;6295;49.452;8.466;2022-10-16T05:16:59;4.03;;;3.10;;
12459;SDS011;6295;49.452;8.466;2022-10-16T05:21:02;4.80;;;2.87;;
12459;SDS011;6295;49.452;8.466;2022-10-16T05:25:04;3.00;;;2.80;;
12459;SDS011;6295;49.452;8.466;2022-10-16T05:29:08;3.67;;;3.10;;
12459;SDS011;6295;49.452;8.466;2022-10-16T05:33:10;3.20;;;2.90;;
12459;SDS011;6295;49.452;8.466;2022-10-16T05:37:13;3.00;;;2.70;;
12459;SDS011;6295;49.452;8.466;2022-10-16T05:41:15;3.20;;;2.90;;
12459;SDS011;6295;49.452;8.466;2022-10-16T05:45:22;3.03;;;2.80;;
12459;SDS011;6295;49.452;8.466;2022-10-16T05:49:24;3.83;;;2.97;;
12459;SDS011;6295;49.452;8.466;2022-10-16T05:53:27;3.00;;;2.70;;
12459;SDS011;6295;49.452;8.466;2022-10-16T05:57:30;2.77;;;2.57;;
12459;SDS011;6295;49.452;8.466;2022-10-16T06:01:33;2.50;;;2.30;;
12459;SDS011;6295;49.452;8.466;2022-10-16T06:05:35;2.63;;;2.27;;
12459;SDS011;6295;49.452;8.466;2022-10-16T06:09:38;2.83;;;2.43;;
12459;SDS011;6295;49.452;8.466;2022-10-16T06:13:42;2.50;;;2.10;;
12459;SDS011;6295;49.452;8.466;2022-10-16T06:17:47;2.70;;;2.50;;
12459;SDS011;6295;49.452;8.466;2022-10-16T06:21:50;2.53;;;2.33;;
12459;SDS011;6295;49.452;8.466;2022-10-16T06:25:52;3.40;;;2.60;;
12459;SDS011;6295;49.452;8.466;2022-10-16T06:29:54;2.40;;;2.20;;
12459;SDS011;6295;49.452;8.466;2022-10-16T06:33:59;2.40;;;2.20;;
12459;SDS011;6295;49.452;8.466;2022-10-16T06:38:02;2.80;;;2.33;;
12459;SDS011;6295;49.452;8.466;2022-10-16T06:42:04;2.50;;;2.30;;
12459;SDS011;6295;49.452;8.466;2022-10-16T06:46:07;2.53;;;2.30;;
12459;SDS011;6295;49.452;8.466;2022-10-16T06:50:12;2.43;;;2.23;;
12459;SDS011;6295;49.452;8.466;2022-10-16T06:54:15;2.47;;;2.23;;
12459;SDS011;6295;49.452;8.466;2022-10-16T06:58:18;2.70;;;2.50;;
12459;SDS011;6295;49.452;8.466;2022-10-16T07:02:20;2.50;;;2.30;;
12459;SDS011;6295;49.452;8.466;2022-10-16T07:06:24;3.27;;;2.50;;
12459;SDS011;6295;49.452;8.466;2022-10-16T07:10:27;2.40;;;2.03;;
12459;SDS011;6295;49.452;8.466;2022-10-16T07:14:30;2.73;;;2.40;;
12459;SDS011;6295;49.452;8.466;2022-10-16T07:18:32;2.73;;;2.53;;
12459;SDS011;6295;49.452;8.466;2022-10-16T07:22:36;3.13;;;2.10;;
12459;SDS011;6295;49.452;8.466;2022-10-16T07:26:38;2.50;;;2.30;;
12459;SDS011;6295;49.452;8.466;2022-10-16T07:30:40;2.97;;;2.30;;
12459;SDS011;6295;49.452;8.466;2022-10-16T07:34:43;2.27;;;2.07;;
12459;SDS011;6295;49.452;8.466;2022-10-16T07:38:47;2.30;;;2.10;;
12459;SDS011;6295;49.452;8.466;2022-10-16T07:42:49;3.17;;;2.27;;
12459;SDS011;6295;49.452;8.466;2022-10-16T07:46:51;2.13;;;2.00;;
12459;SDS011;6295;49.452;8.466;2022-10-16T07:50:56;3.50;;;2.30;;
12459;SDS011;6295;49.452;8.466;2022-10-16T07:55:01;2.73;;;2.30;;
12459;SDS011;6295;49.452;8.466;2022-10-16T07:59:04;2.70;;;2.50;;
12459;SDS011;6295;49.452;8.466;2022-10-16T08:03:07;3.23;;;2.40;;
12459;SDS011;6295;49.452;8.466;2022-10-16T08:07:10;2.90;;;2.57;;
12459;SDS011;6295;49.452;8.466;2022-10-16T08:11:13;2.40;;;2.20;;
12459;SDS011;6295;49.452;8.466;2022-10-16T08:15:16;2.80;;;2.60;;
12459;SDS011;6295;49.452;8.466;2022-10-16T08:19:18;2.70;;;2.50;;
12459;SDS011;6295;49.452;8.466;2022-10-16T08:23:20;3.53;;;2.60;;
12459;SDS011;6295;49.452;8.466;2022-10-16T08:27:24;3.60;;;2.50;;
12459;SDS011;6295;49.452;8.466;2022-10-16T08:31:26;2.60;;;2.40;;
12459;SDS011;6295;49.452;8.466;2022-10-16T08:35:28;2.77;;;2.43;;
12459;SDS011;6295;49.452;8.466;2022-10-16T08:39:31;3.40;;;2.50;;
12459;SDS011;6295;49.452;8.466;2022-10-16T08:43:39;2.83;;;2.60;;
12459;SDS011;6295;49.452;8.466;2022-10-16T08:47:59;3.17;;;2.87;;
12459;SDS011;6295;49.452;8.466;2022-10-16T08:52:03;4.40;;;3.30;;
12459;SDS011;6295;49.452;8.466;2022-10-16T08:56:05;4.60;;;3.73;;
12459;SDS011;6295;49.452;8.466;2022-10-16T09:00:12;3.33;;;3.03;;
12459;SDS011;6295;49.452;8.466;2022-10-16T09:04:24;3.07;;;2.77;;
12459;SDS011;6295;49.452;8.466;2022-10-16T09:08:46;5.57;;;3.63;;
12459;SDS011;6295;49.452;8.466;2022-10-16T09:13:00;3.97;;;3.67;;
12459;SDS011;6295;49.452;8.466;2022-10-16T09:17:11;4.53;;;3.67;;
12459;SDS011;6295;49.452;8.466;2022-10-16T09:21:25;4.73;;;3.77;;
12459;SDS011;6295;49.452;8.466;2022-10-16T09:25:30;4.53;;;3.30;;
12459;SDS011;6295;49.452;8.466;2022-10-16T09:29:34;3.77;;;3.47;;
12459;SDS011;6295;49.452;8.466;2022-10-16T09:33:37;3.77;;;3.47;;
12459;SDS011;6295;49.452;8.466;2022-10-16T09:37:42;9.00;;;3.90;;
12459;SDS011;6295;49.452;8.466;2022-10-16T09:41:47;4.77;;;3.40;;
12459;SDS011;6295;49.452;8.466;2022-10-16T09:45:53;4.23;;;3.70;;
12459;SDS011;6295;49.452;8.466;2022-10-16T09:49:59;4.83;;;3.57;;
12459;SDS011;6295;49.452;8.466;2022-10-16T09:54:12;5.17;;;3.33;;
12459;SDS011;6295;49.452;8.466;2022-10-16T09:58:16;3.47;;;3.17;;
12459;SDS011;6295;49.452;8.466;2022-10-16T10:02:19;3.43;;;3.10;;
12459;SDS011;6295;49.452;8.466;2022-10-16T10:06:36;3.37;;;3.07;;
12459;SDS011;6295;49.452;8.466;2022-10-16T10:10:43;3.60;;;3.03;;
12459;SDS011;6295;49.452;8.466;2022-10-16T10:14:50;3.03;;;2.83;;
12459;SDS011;6295;49.452;8.466;2022-10-16T10:18:57;3.40;;;3.10;;
12459;SDS011;6295;49.452;8.466;2022-10-16T10:23:13;3.27;;;3.00;;
12459;SDS011;6295;49.452;8.466;2022-10-16T10:27:23;3.33;;;2.90;;
12459;SDS011;6295;49.452;8.466;2022-10-16T10:31:32;2.90;;;2.70;;
12459;SDS011;6295;49.452;8.466;2022-10-16T10:35:38;2.90;;;2.70;;
12459;SDS011;6295;49.452;8.466;2022-10-16T10:39:48;3.00;;;2.70;;
12459;SDS011;6295;49.452;8.466;2022-10-16T10:43:55;3.77;;;2.90;;
12459;SDS011;6295;49.452;8.466;2022-10-16T10:48:12;2.90;;;2.60;;
12459;SDS011;6295;49.452;8.466;2022-10-16T10:52:33;2.97;;;2.50;;
12459;SDS011;6295;49.452;8.466;2022-10-16T10:56:44;3.70;;;2.73;;
12459;SDS011;6295;49.452;8.466;2022-10-16T11:00:53;3.60;;;2.60;;
12459;SDS011;6295;49.452;8.466;2022-10-16T11:05:10;2.70;;;2.50;;
12459;SDS011;6295;49.452;8.466;2022-10-16T11:09:17;4.23;;;2.67;;
12459;SDS011;6295;49.452;8.466;2022-10-16T11:13:26;2.97;;;2.57;;
12459;SDS011;6295;49.452;8.466;2022-10-16T11:17:33;3.40;;;2.40;;
12459;SDS011;6295;49.452;8.466;2022-10-16T11:21:39;2.90;;;2.70;;
12459;SDS011;6295;49.452;8.466;2022-10-16T11:25:49;3.40;;;2.40;;
12459;SDS011;6295;49.452;8.466;2022-10-16T11:29:53;3.00;;;2.70;;
12459;SDS011;6295;49.452;8.466;2022-10-16T11:34:01;11.43;;;2.90;;
12459;SDS011;6295;49.452;8.466;2022-10-16T11:38:09;2.80;;;2.60;;
12459;SDS011;6295;49.452;8.466;2022-10-16T11:42:18;3.77;;;2.77;;
12459;SDS011;6295;49.452;8.466;2022-10-16T11:46:25;2.73;;;2.53;;
12459;SDS011;6295;49.452;8.466;2022-10-16T11:50:30;2.83;;;2.50;;
12459;SDS011;6295;49.452;8.466;2022-10-16T11:54:35;5.03;;;2.57;;
12459;SDS011;6295;49.452;8.466;2022-10-16T11:58:48;3.27;;;2.90;;
12459;SDS011;6295;49.452;8.466;2022-10-16T12:02:59;2.90;;;2.70;;
12459;SDS011;6295;49.452;8.466;2022-10-16T12:07:11;2.93;;;2.70;;
12459;SDS011;6295;49.452;8.466;2022-10-16T12:11:23;4.27;;;2.93;;
12459;SDS011;6295;49.452;8.466;2022-10-16T12:15:33;4.27;;;3.00;;
12459;SDS011;6295;49.452;8.466;2022-10-16T12:19:36;2.67;;;2.43;;
12459;SDS011;6295;49.452;8.466;2022-10-16T12:23:46;3.53;;;3.03;;
12459;SDS011;6295;49.452;8.466;2022-10-16T12:27:54;3.60;;;3.30;;
12459;SDS011;6295;49.452;8.466;2022-10-16T12:32:02;3.50;;;3.20;;
12459;SDS011;6295;49.452;8.466;2022-10-16T12:36:09;3.30;;;2.60;;
12459;SDS011;6295;49.452;8.466;2022-10-16T12:40:22;4.10;;;2.97;;
12459;SDS011;6295;49.452;8.466;2022-10-16T12:44:25;3.00;;;2.70;;
12459;SDS011;6295;49.452;8.466;2022-10-16T12:48:35;3.33;;;3.03;;
12459;SDS011;6295;49.452;8.466;2022-10-16T12:52:39;4.37;;;3.10;;
12459;SDS011;6295;49.452;8.466;2022-10-16T12:56:44;4.10;;;2.90;;
12459;SDS011;6295;49.452;8.466;2022-10-16T13:00:50;3.40;;;2.80;;
12459;SDS011;6295;49.452;8.466;2022-10-16T13:05:01;3.07;;;2.87;;
12459;SDS011;6295;49.452;8.466;2022-10-16T13:09:22;5.13;;;2.70;;
12459;SDS011;6295;49.452;8.466;2022-10-16T13:18:05;2.73;;;2.53;;
12459;SDS011;6295;49.452;8.466;2022-10-16T13:22:15;2.90;;;2.60;;
12459;SDS011;6295;49.452;8.466;2022-10-16T13:26:28;2.93;;;2.70;;
12459;SDS011;6295;49.452;8.466;2022-10-16T13:30:40;3.17;;;2.87;;
12459;SDS011;6295;49.452;8.466;2022-10-16T13:34:45;3.60;;;2.70;;
12459;SDS011;6295;49.452;8.466;2022-10-16T13:38:58;3.07;;;2.87;;
12459;SDS011;6295;49.452;8.466;2022-10-16T13:43:03;3.47;;;2.87;;
12459;SDS011;6295;49.452;8.466;2022-10-16T13:47:11;2.97;;;2.67;;
12459;SDS011;6295;49.452;8.466;2022-10-16T13:51:18;2.70;;;2.50;;
12459;SDS011;6295;49.452;8.466;2022-10-16T13:55:22;3.03;;;2.50;;
12459;SDS011;6295;49.452;8.466;2022-10-16T13:59:32;3.40;;;3.10;;
12459;SDS011;6295;49.452;8.466;2022-10-16T14:03:35;3.10;;;2.90;;
12459;SDS011;6295;49.452;8.466;2022-10-16T14:07:37;3.13;;;2.87;;
12459;SDS011;6295;49.452;8.466;2022-10-16T14:11:43;2.70;;;2.50;;
12459;SDS011;6295;49.452;8.466;2022-10-16T14:15:49;2.97;;;2.70;;
12459;SDS011;6295;49.452;8.466;2022-10-16T14:19:55;2.80;;;2.60;;
12459;SDS011;6295;49.452;8.466;2022-10-16T14:23:59;3.00;;;2.70;;
12459;SDS011;6295;49.452;8.466;2022-10-16T14:28:14;2.97;;;2.77;;
12459;SDS011;6295;49.452;8.466;2022-10-16T14:32:22;2.77;;;2.57;;
12459;SDS011;6295;49.452;8.466;2022-10-16T14:36:25;2.90;;;2.70;;
12459;SDS011;6295;49.452;8.466;2022-10-16T14:40:29;3.20;;;2.90;;
12459;SDS011;6295;49.452;8.466;2022-10-16T14:44:33;3.17;;;2.87;;
12459;SDS011;6295;49.452;8.466;2022-10-16T14:48:39;3.63;;;2.67;;
12459;SDS011;6295;49.452;8.466;2022-10-16T14:52:42;3.50;;;2.70;;
12459;SDS011;6295;49.452;8.466;2022-10-16T14:56:46;3.77;;;2.70;;
12459;SDS011;6295;49.452;8.466;2022-10-16T15:00:49;2.90;;;2.70;;
12459;SDS011;6295;49.452;8.466;2022-10-16T15:04:53;2.83;;;2.57;;
12459;SDS011;6295;49.452;8.466;2022-10-16T15:08:56;2.90;;;2.60;;
12459;SDS011;6295;49.452;8.466;2022-10-16T15:12:58;2.90;;;2.70;;
12459;SDS011;6295;49.452;8.466;2022-10-16T15:17:00;3.17;;;2.87;;
12459;SDS011;6295;49.452;8.466;2022-10-16T15:21:05;3.10;;;2.80;;
12459;SDS011;6295;49.452;8.466;2022-10-16T15:25:09;2.87;;;2.67;;
12459;SDS011;6295;49.452;8.466;2022-10-16T15:29:21;2.70;;;2.50;;
12459;SDS011;6295;49.452;8.466;2022-10-16T15:33:24;2.87;;;2.57;;
12459;SDS011;6295;49.452;8.466;2022-10-16T15:37:34;3.73;;;2.80;;
12459;SDS011;6295;49.452;8.466;2022-10-16T15:41:36;3.23;;;2.93;;
12459;SDS011;6295;49.452;8.466;2022-10-16T15:45:38;5.30;;;2.70;;
12459;SDS011;6295;49.452;8.466;2022-10-16T15:49:40;3.37;;;3.07;;
12459;SDS011;6295;49.452;8.466;2022-10-16T15:53:44;3.30;;;3.00;;
12459;SDS011;6295;49.452;8.466;2022-10-16T15:57:47;3.13;;;2.60;;
12459;SDS011;6295;49.452;8.466;2022-10-16T16:01:50;3.63;;;2.83;;
12459;SDS011;6295;49.452;8.466;2022-10-16T16:05:52;2.70;;;2.50;;
12459;SDS011;6295;49.452;8.466;2022-10-16T16:09:56;3.13;;;2.80;;
12459;SDS011;6295;49.452;8.466;2022-10-16T16:13:58;3.37;;;2.57;;
12459;SDS011;6295;49.452;8.466;2022-10-16T16:18:01;3.63;;;2.60;;
12459;SDS011;6295;49.452;8.466;2022-10-16T16:22:05;2.87;;;2.67;;
12459;SDS011;6295;49.452;8.466;2022-10-16T16:26:11;2.80;;;2.60;;
12459;SDS011;6295;49.452;8.466;2022-10-16T16:30:15;3.10;;;2.80;;
12459;SDS011;6295;49.452;8.466;2022-10-16T16:34:20;2.60;;;2.40;;
12459;SDS011;6295;49.452;8.466;2022-10-16T16:38:22;3.00;;;2.70;;
12459;SDS011;6295;49.452;8.466;2022-10-16T16:42:26;3.50;;;2.67;;
12459;SDS011;6295;49.452;8.466;2022-10-16T16:46:30;3.70;;;2.73;;
12459;SDS011;6295;49.452;8.466;2022-10-16T16:50:34;3.13;;;2.83;;
12459;SDS011;6295;49.452;8.466;2022-10-16T16:54:37;3.20;;;2.90;;
12459;SDS011;6295;49.452;8.466;2022-10-16T16:58:40;4.27;;;2.80;;
12459;SDS011;6295;49.452;8.466;2022-10-16T17:02:42;3.50;;;2.80;;
12459;SDS011;6295;49.452;8.466;2022-10-16T17:06:45;2.70;;;2.50;;
12459;SDS011;6295;49.452;8.466;2022-10-16T17:10:47;2.90;;;2.70;;
12459;SDS011;6295;49.452;8.466;2022-10-16T17:14:54;3.47;;;2.63;;
12459;SDS011;6295;49.452;8.466;2022-10-16T17:18:58;2.93;;;2.73;;
12459;SDS011;6295;49.452;8.466;2022-10-16T17:23:00;2.67;;;2.47;;
12459;SDS011;6295;49.452;8.466;2022-10-16T17:27:02;4.13;;;2.40;;
12459;SDS011;6295;49.452;8.466;2022-10-16T17:31:09;3.80;;;2.53;;
12459;SDS011;6295;49.452;8.466;2022-10-16T17:35:12;4.27;;;2.30;;
12459;SDS011;6295;49.452;8.466;2022-10-16T17:39:16;3.60;;;2.50;;
12459;SDS011;6295;49.452;8.466;2022-10-16T17:43:18;2.70;;;2.50;;
12459;SDS011;6295;49.452;8.466;2022-10-16T17:47:22;3.23;;;2.63;;
12459;SDS011;6295;49.452;8.466;2022-10-16T17:51:25;3.07;;;2.83;;
12459;SDS011;6295;49.452;8.466;2022-10-16T17:55:28;3.93;;;2.53;;
12459;SDS011;6295;49.452;8.466;2022-10-16T17:59:31;2.90;;;2.60;;
12459;SDS011;6295;49.452;8.466;2022-10-16T18:03:36;2.90;;;2.60;;
12459;SDS011;6295;49.452;8.466;2022-10-16T18:07:40;4.67;;;2.70;;
12459;SDS011;6295;49.452;8.466;2022-10-16T18:11:43;4.53;;;2.70;;
12459;SDS011;6295;49.452;8.466;2022-10-16T18:15:46;2.80;;;2.60;;
12459;SDS011;6295;49.452;8.466;2022-10-16T18:19:49;4.33;;;2.57;;
12459;SDS011;6295;49.452;8.466;2022-10-16T18:23:51;2.97;;;2.70;;
12459;SDS011;6295;49.452;8.466;2022-10-16T18:27:54;3.03;;;2.77;;
12459;SDS011;6295;49.452;8.466;2022-10-16T18:31:57;3.27;;;2.60;;
12459;SDS011;6295;49.452;8.466;2022-10-16T18:36:01;2.70;;;2.50;;
12459;SDS011;6295;49.452;8.466;2022-10-16T18:40:04;2.90;;;2.70;;
12459;SDS011;6295;49.452;8.466;2022-10-16T18:44:06;4.47;;;2.60;;
12459;SDS011;6295;49.452;8.466;2022-10-16T18:48:10;6.40;;;3.03;;
12459;SDS011;6295;49.452;8.466;2022-10-16T18:52:13;3.10;;;2.80;;
